Grinnell, IA

2:40 PM CDT on April 26, 2017 (GMT -0500)
Grinnell Regional

Weather History for KGGI - March, 2013

Change the Weather History Date:

Sunday, March 3, 2013

  Actual Average (KTNU) Record (KTNU)
Temperature  
Mean Temperature 22 °F -  
Max Temperature 31 °F 42 °F 75 °F (1983)
Min Temperature 14 °F 25 °F -11 °F (2014)
Degree Days  
Heating Degree Days 42    
Moisture  
Dew Point 18 °F    
Average Humidity 78    
Maximum Humidity 92    
Minimum Humidity 65    
Precipitation  
Precipitation 0.00 in - - ()
Sea Level Pressure  
Sea Level Pressure 30.05 in    
Wind  
Wind Speed 6 mph (ESE)    
Max Wind Speed 17 mph    
Max Gust Speed 21 mph    
Visibility 10 miles    
Events Snow    
Averages and records for this station are not official NWS values.
T = Trace of Precipitation, MM = Missing Value Source: NWS Daily Summary

Daily Weather History Graph

Daily Weather History Graph

Search for Another Location

Airport or City:

Trip Planner

Search our weather history database for the weather conditions in past years. The results will help you decide how hot, cold, wet, or windy it might be!

Date:

Astronomy

Mar. 03, 2013 Rise Set
Actual Time 6:42 AM CST 6:04 PM CST
Civil Twilight 6:14 AM CST 6:31 PM CST
Nautical Twilight 5:42 AM CST 7:04 PM CST
Astronomical Twilight 5:09 AM CST 7:36 PM CST
Moon No Moon Rise 9:52 AM CST (3/3)
Length of Visible Light 12h 17m
Length of Day
11h 21m
Waning Gibbous, 63% of the Moon is Illuminated
Mar 3
Waning Gibbous
Mar 4
Last Quarter
Mar 11
New
Mar 19
First Quarter
Mar 27
Full

Hourly Weather History & Observations

Time (CST) Temp. Windchill Dew Point Humidity Pressure Visibility Wind Dir Wind Speed Gust Speed Precip Events Conditions
12:15 AM 16.9 °F - 13.6 °F 87% 30.18 in 10.0 mi Calm Calm - N/A   Overcast
12:35 AM 18.9 °F - 14.9 °F 85% 30.17 in 10.0 mi Calm Calm - N/A   Overcast
12:55 AM 18.0 °F - 14.7 °F 87% 30.18 in 10.0 mi Calm Calm - N/A   Overcast
1:35 AM 19.6 °F - 15.4 °F 84% 30.16 in 10.0 mi Calm Calm - N/A   Overcast
1:55 AM 20.1 °F - 15.4 °F 82% 30.15 in 10.0 mi Calm Calm - N/A   Overcast
2:15 AM 19.9 °F 14.9 °F 15.4 °F 83% 30.14 in 10.0 mi SE 3.5 mph - N/A   Overcast
2:35 AM 19.4 °F 11.5 °F 15.6 °F 85% 30.13 in 10.0 mi SSE 5.8 mph - N/A   Overcast
2:55 AM 20.1 °F 12.3 °F 15.1 °F 81% 30.12 in 10.0 mi SSE 5.8 mph - N/A   Overcast
3:15 AM 19.9 °F 14.9 °F 15.6 °F 83% 30.13 in 10.0 mi SE 3.5 mph - N/A   Overcast
3:35 AM 18.7 °F 11.9 °F 14.4 °F 83% 30.12 in 10.0 mi South 4.6 mph - N/A   Mostly Cloudy
3:55 AM 17.6 °F 12.3 °F 14.0 °F 86% 30.11 in 10.0 mi SSE 3.5 mph - N/A   Scattered Clouds
4:15 AM 17.4 °F 12.1 °F 13.6 °F 85% 30.11 in 10.0 mi East 3.5 mph - N/A   Clear
4:35 AM 14.7 °F 7.3 °F 12.4 °F 90% 30.11 in 10.0 mi East 4.6 mph - N/A   Clear
4:55 AM 14.9 °F 7.5 °F 12.9 °F 92% 30.11 in 10.0 mi East 4.6 mph - N/A   Scattered Clouds
5:15 AM 16.9 °F 9.8 °F 13.8 °F 88% 30.11 in 10.0 mi SE 4.6 mph - N/A   Mostly Cloudy
5:55 AM 16.7 °F 9.6 °F 14.0 °F 89% 30.11 in 10.0 mi SE 4.6 mph - N/A   Overcast
6:15 AM 17.6 °F 12.3 °F 14.0 °F 86% 30.12 in 10.0 mi ESE 3.5 mph - N/A   Overcast
6:55 AM 16.2 °F 9.0 °F 13.3 °F 88% 30.11 in 10.0 mi East 4.6 mph - N/A   Overcast
7:15 AM 17.6 °F 10.7 °F 14.0 °F 86% 30.11 in 10.0 mi ESE 4.6 mph - N/A   Overcast
7:35 AM 18.3 °F 10.2 °F 14.7 °F 86% 30.11 in 10.0 mi SE 5.8 mph - N/A   Overcast
7:55 AM 19.4 °F 10.4 °F 15.4 °F 85% 30.11 in 10.0 mi ESE 6.9 mph - N/A   Overcast
8:15 AM 20.3 °F 12.5 °F 16.2 °F 84% 30.11 in 10.0 mi ESE 5.8 mph - N/A   Overcast
8:35 AM 21.6 °F 12.1 °F 16.5 °F 81% 30.10 in 10.0 mi SE 8.1 mph - N/A   Overcast
8:55 AM 22.8 °F 13.6 °F 16.7 °F 77% 30.10 in 10.0 mi ESE 8.1 mph - N/A   Overcast
9:15 AM 23.4 °F 12.8 °F 16.5 °F 75% 30.09 in 10.0 mi ESE 10.4 mph - N/A   Overcast
9:35 AM 23.9 °F 14.2 °F 17.6 °F 77% 30.09 in 10.0 mi ESE 9.2 mph - N/A   Overcast
9:55 AM 24.6 °F 15.8 °F 18.3 °F 77% 30.09 in 10.0 mi ESE 8.1 mph - N/A   Overcast
10:15 AM 24.8 °F 15.3 °F 18.7 °F 78% 30.09 in 10.0 mi ESE 9.2 mph - N/A   Overcast
10:35 AM 25.9 °F 16.6 °F 19.0 °F 75% 30.09 in 10.0 mi ESE 9.2 mph - N/A   Overcast
10:55 AM 26.6 °F 16.8 °F 19.4 °F 74% 30.09 in 10.0 mi SE 10.4 mph - N/A   Overcast
11:15 AM 27.1 °F 16.9 °F 19.2 °F 72% 30.08 in 10.0 mi ESE 11.5 mph - N/A   Overcast
11:35 AM 27.9 °F 19.1 °F 20.1 °F 73% 30.08 in 10.0 mi ESE 9.2 mph - N/A   Overcast
11:55 AM 28.2 °F 18.3 °F 19.9 °F 71% 30.07 in 10.0 mi SE 11.5 mph - N/A   Overcast
12:15 PM 28.8 °F 18.4 °F 19.9 °F 70% 30.06 in 10.0 mi SE 12.7 mph - N/A   Overcast
12:35 PM 29.3 °F 19.6 °F 20.1 °F 69% 30.06 in 10.0 mi ESE 11.5 mph - N/A   Overcast
12:55 PM 30.2 °F 20.2 °F 19.8 °F 65% 30.04 in 10.0 mi SE 12.7 mph - N/A   Overcast
1:15 PM 30.4 °F 21.5 °F 21.0 °F 68% 30.03 in 10.0 mi ESE 10.4 mph - N/A   Scattered Clouds
1:35 PM 30.6 °F 21.8 °F 21.2 °F 68% 30.02 in 10.0 mi ESE 10.4 mph - N/A   Clear
1:55 PM 30.9 °F 21.7 °F 21.2 °F 67% 30.02 in 10.0 mi ESE 11.5 mph - N/A   Clear
2:35 PM 30.9 °F 21.2 °F 21.4 °F 68% 30.00 in 10.0 mi ESE 12.7 mph - N/A   Clear
2:55 PM 31.1 °F 21.4 °F 20.7 °F 65% 30.00 in 10.0 mi ESE 12.7 mph - N/A   Clear
3:35 PM 30.9 °F 21.7 °F 21.2 °F 67% 29.99 in 10.0 mi ESE 11.5 mph - N/A   Clear
3:55 PM 30.2 °F 19.8 °F 21.2 °F 69% 29.98 in 10.0 mi East 13.8 mph - N/A   Scattered Clouds
4:15 PM 30.0 °F 19.5 °F 21.9 °F 72% 29.98 in 10.0 mi East 13.8 mph - N/A   Overcast
4:35 PM 29.8 °F 20.3 °F 22.3 °F 73% 29.98 in 10.0 mi East 11.5 mph 17.3 mph N/A   Overcast
4:55 PM 29.7 °F 19.6 °F 22.6 °F 75% 29.97 in 10.0 mi East 12.7 mph 16.1 mph N/A   Overcast
5:15 PM 29.3 °F 19.6 °F 22.6 °F 76% 29.98 in 10.0 mi East 11.5 mph - N/A   Overcast
5:35 PM 29.1 °F 18.9 °F 22.6 °F 77% 29.97 in 10.0 mi ESE 12.7 mph 17.3 mph N/A   Overcast
5:55 PM 28.9 °F 17.7 °F 22.5 °F 77% 29.97 in 10.0 mi East 15.0 mph - N/A   Overcast
6:15 PM 28.4 °F 17.0 °F 22.6 °F 79% 29.96 in 10.0 mi East 15.0 mph - N/A   Overcast
6:35 PM 28.2 °F 15.9 °F 22.1 °F 78% 29.96 in 10.0 mi East 17.3 mph - N/A   Overcast
6:55 PM 28.2 °F 16.3 °F 21.9 °F 77% 29.95 in 10.0 mi East 16.1 mph - N/A   Overcast
7:15 PM 27.9 °F 17.3 °F 21.2 °F 76% 29.96 in 10.0 mi ESE 12.7 mph - N/A   Overcast
7:35 PM 27.7 °F 17.6 °F 20.3 °F 74% 29.97 in 10.0 mi ESE 11.5 mph 20.7 mph N/A   Overcast
7:55 PM 27.7 °F 17.1 °F 19.8 °F 72% 29.97 in 10.0 mi ESE 12.7 mph 18.4 mph N/A   Overcast
8:15 PM 27.5 °F 16.8 °F 19.9 °F 73% 29.97 in 10.0 mi ESE 12.7 mph 16.1 mph N/A   Overcast
8:35 PM 27.3 °F 17.7 °F 19.9 °F 74% 29.97 in 10.0 mi ESE 10.4 mph - N/A   Overcast
8:55 PM 27.0 °F 15.6 °F 19.4 °F 73% 29.97 in 10.0 mi ESE 13.8 mph - N/A   Overcast
9:15 PM 27.0 °F 16.1 °F 19.2 °F 73% 29.97 in 10.0 mi ESE 12.7 mph - N/A   Overcast
9:35 PM 26.6 °F 15.7 °F 18.9 °F 73% 29.96 in 10.0 mi East 12.7 mph - N/A   Overcast
9:55 PM 26.4 °F 16.0 °F 19.4 °F 75% 29.96 in 10.0 mi ESE 11.5 mph - N/A   Overcast
10:15 PM 26.4 °F 15.5 °F 19.8 °F 76% 29.96 in 10.0 mi ESE 12.7 mph 17.3 mph N/A   Overcast
10:35 PM 26.6 °F 15.7 °F 19.6 °F 75% 29.97 in 10.0 mi ESE 12.7 mph - N/A   Overcast
10:55 PM 27.0 °F 16.7 °F 19.8 °F 74% 29.98 in 10.0 mi ESE 11.5 mph - N/A   Overcast
11:15 PM 26.6 °F 16.8 °F 19.9 °F 76% 29.97 in 10.0 mi ESE 10.4 mph - N/A   Overcast
11:35 PM 26.6 °F 16.2 °F 20.3 °F 77% 29.97 in 10.0 mi ESE 11.5 mph - N/A Snow Light Snow
11:55 PM 26.4 °F 16.0 °F 21.0 °F 80% 29.96 in 5.0 mi ESE 11.5 mph 18.4 mph N/A Snow Light Snow